Time;durP1;ratioP1;P1;durP2;ratioP2;P2;SDS_P1;SDS_P2;PMS_P1;PMS_P2;Temp;Humidity;BMP_temperature;BMP_pressure;BME280_temperature;BME280_humidity;BME280_pressure;Samples;Min_cycle;Max_cycle;Signal;HPM_P1;HPM_P2
2024/01/05 07:37:39;;;;;;;;;;;;;;;5.06;100.00;98943.66;108358;1275;23398;-46
2024/01/05 07:40:06;;;;;;;;;;;;;;;5.11;100.00;98939.67;112126;1249;23070;-46
2024/01/05 07:42:33;;;;;;;;;;;;;;;5.16;100.00;98941.40;112090;1249;22452;-46
2024/01/05 07:45:00;;;;;;;;;;;;;;;5.22;100.00;98941.06;112139;1244;23281;-46
2024/01/05 07:47:27;;;;;;;;;;;;;;;5.29;100.00;98953.50;111916;1249;22489;-52
2024/01/05 07:49:53;;;;;;;;;;;;;;;5.34;100.00;98947.63;110382;1249;25344;-53
2024/01/05 07:52:20;;;;;;;;;;;;;;;5.40;100.00;98944.67;111834;1250;23122;-47
2024/01/05 07:54:47;;;;;;;;;;;;;;;5.48;100.00;98950.91;110412;1254;22641;-53
2024/01/05 07:57:14;;;;;;;;;;;;;;;5.54;100.00;98962.66;111209;1249;22509;-47
2024/01/05 07:59:41;;;;;;;;;;;;;;;5.57;100.00;98976.84;112138;1249;22412;-48
2024/01/05 08:02:07;;;;;;;;;;;;;;;5.59;100.00;98991.20;111629;1256;22514;-54
2024/01/05 08:04:35;;;;;;;;;;;;;;;5.60;100.00;98996.38;110693;1245;23284;-53
2024/01/05 08:07:02;;;;;;;;;;;;;;;5.59;100.00;99003.48;112075;1250;22420;-46
2024/01/05 08:09:29;;;;;;;;;;;;;;;5.59;100.00;99006.41;112121;1249;22426;-46
2024/01/05 08:11:56;;;;;;;;;;;;;;;5.62;100.00;99010.40;112064;1246;22412;-54
2024/01/05 08:14:23;;;;;;;;;;;;;;;5.66;100.00;99009.17;112054;1249;22429;-46
2024/01/05 08:16:49;;;;;;;;;;;;;;;5.72;100.00;99011.77;112094;1256;22404;-47
2024/01/05 08:19:16;;;;;;;;;;;;;;;5.77;100.00;99015.91;109505;1249;25319;-46
2024/01/05 08:21:43;;;;;;;;;;;;;;;5.81;100.00;99014.89;110987;1250;22524;-47
2024/01/05 08:24:10;;;;;;;;;;;;;;;5.84;100.00;99019.38;112103;1246;22393;-46
2024/01/05 08:26:37;;;;;;;;;;;;;;;5.83;100.00;99014.35;112076;1249;23019;-53
2024/01/05 08:29:04;;;;;;;;;;;;;;;5.83;100.00;99014.70;112091;1246;22389;-47
2024/01/05 08:31:30;;;;;;;;;;;;;;;5.80;100.00;99005.55;112118;1246;23203;-53
2024/01/05 08:33:57;;;;;;;;;;;;;;;5.79;100.00;99004.31;112065;1251;22364;-48
2024/01/05 08:36:25;;;;;;;;;;;;;;;5.81;100.00;99004.50;112059;1249;22384;-47
2024/01/05 08:38:51;;;;;;;;;;;;;;;5.85;100.00;99010.38;112108;1249;22384;-47
2024/01/05 08:41:18;;;;;;;;;;;;;;;5.87;100.00;99006.91;112074;1248;22450;-48
2024/01/05 08:43:44;;;;;;;;;;;;;;;5.85;100.00;99005.52;111701;1249;22484;-53
2024/01/05 08:46:11;;;;;;;;;;;;;;;5.85;100.00;99018.66;112012;1252;22375;-53
2024/01/05 08:48:38;;;;;;;;;;;;;;;5.84;100.00;99025.59;112010;1260;22366;-53
2024/01/05 08:51:04;;;;;;;;;;;;;;;5.82;100.00;99019.55;112052;1260;22671;-53
2024/01/05 08:53:31;;;;;;;;;;;;;;;5.82;100.00;99026.98;112073;1251;23223;-54
2024/01/05 08:55:58;;;;;;;;;;;;;;;5.85;100.00;99036.31;112090;1249;22421;-54
2024/01/05 08:58:26;;;;;;;;;;;;;;;5.89;100.00;99037.70;112112;1250;23204;-54
2024/01/05 09:00:53;;;;;;;;;;;;;;;5.94;100.00;99040.85;110939;1257;23143;-49
2024/01/05 09:03:20;;;;;;;;;;;;;;;6.06;100.00;99044.46;111238;1260;22500;-48
2024/01/05 09:05:47;;;;;;;;;;;;;;;6.20;100.00;99055.86;109857;1251;22534;-55
2024/01/05 09:08:13;;;;;;;;;;;;;;;6.31;100.00;99056.02;112042;1251;22390;-48
2024/01/05 09:10:40;;;;;;;;;;;;;;;6.34;100.00;99054.80;111900;1260;24079;-53
2024/01/05 09:13:07;;;;;;;;;;;;;;;6.34;100.00;99057.91;111899;1255;22407;-46
2024/01/05 09:15:34;;;;;;;;;;;;;;;6.32;100.00;99062.75;111657;1249;22499;-49
2024/01/05 09:18:02;;;;;;;;;;;;;;;6.28;100.00;99071.10;111861;1260;22510;-48
2024/01/05 09:20:29;;;;;;;;;;;;;;;6.22;100.00;99065.05;111301;1257;23158;-47
2024/01/05 09:22:56;;;;;;;;;;;;;;;6.14;100.00;99059.34;111964;1260;23256;-46
2024/01/05 09:25:23;;;;;;;;;;;;;;;6.09;100.00;99063.33;110388;1260;24214;-52
2024/01/05 09:27:50;;;;;;;;;;;;;;;6.05;100.00;99061.79;112094;1257;22851;-47
2024/01/05 09:30:16;;;;;;;;;;;;;;;6.02;100.00;99070.96;112046;1260;23693;-53
2024/01/05 09:32:43;;;;;;;;;;;;;;;5.99;100.00;99066.13;112314;1252;22494;-53
2024/01/05 09:35:11;;;;;;;;;;;;;;;5.97;100.00;99067.51;111936;1246;23016;-47
2024/01/05 09:37:38;;;;;;;;;;;;;;;5.96;100.00;99074.24;112680;1252;23867;-47
2024/01/05 09:40:05;;;;;;;;;;;;;;;5.93;100.00;99081.17;111941;1252;22554;-47
2024/01/05 09:42:32;;;;;;;;;;;;;;;5.87;100.00;99072.33;110626;1250;22500;-53
2024/01/05 09:44:59;;;;;;;;;;;;;;;5.85;100.00;99072.48;110453;1252;22525;-47
2024/01/05 09:47:26;;;;;;;;;;;;;;;5.84;100.00;99084.60;111835;1242;22474;-48
2024/01/05 09:49:53;;;;;;;;;;;;;;;5.83;100.00;99085.99;112496;1252;22355;-48
2024/01/05 09:52:21;;;;;;;;;;;;;;;5.82;100.00;99074.40;112647;1249;22376;-54
2024/01/05 09:54:49;;;;;;;;;;;;;;;5.82;100.00;99077.17;112655;1248;22337;-54
2024/01/05 09:57:15;;;;;;;;;;;;;;;5.83;100.00;99079.42;112579;1242;22949;-48
2024/01/05 09:59:44;;;;;;;;;;;;;;;5.86;100.00;99083.92;112637;1246;22339;-54
2024/01/05 10:02:12;;;;;;;;;;;;;;;5.90;100.00;99082.52;112637;1252;22838;-48
2024/01/05 10:04:39;;;;;;;;;;;;;;;5.91;100.00;99088.41;112057;1246;22618;-48
2024/01/05 10:07:06;;;;;;;;;;;;;;;5.89;100.00;99081.48;111505;1249;22458;-47
2024/01/05 10:09:32;;;;;;;;;;;;;;;5.86;100.00;99089.10;112939;1249;22385;-48
2024/01/05 10:11:59;;;;;;;;;;;;;;;5.82;100.00;99093.61;112876;1236;23262;-47
2024/01/05 10:14:27;;;;;;;;;;;;;;;5.79;100.00;99088.06;112883;1238;22377;-47
2024/01/05 10:17:09;;;;;;;;;;;;;;;5.76;100.00;99103.48;112923;1243;23074;-48
2024/01/05 10:19:35;;;;;;;;;;;;;;;5.74;100.00;99103.83;113014;1239;22796;-48
2024/01/05 10:22:10;;;;;;;;;;;;;;;5.74;100.00;99100.00;112080;1249;22501;-48
2024/01/05 10:24:37;;;;;;;;;;;;;;;5.73;100.00;99098.09;113014;1237;22275;-52
2024/01/05 10:27:04;;;;;;;;;;;;;;;5.70;100.00;99098.11;112451;1237;116650;-53
2024/01/05 10:29:31;;;;;;;;;;;;;;;5.64;100.00;99101.04;112963;1249;22421;-52
2024/01/05 10:32:11;;;;;;;;;;;;;;;5.59;100.00;99106.40;112579;1237;22577;-54
2024/01/05 10:34:40;;;;;;;;;;;;;;;5.56;100.00;99107.25;110729;1237;22544;-46
2024/01/05 10:37:08;;;;;;;;;;;;;;;5.54;100.00;99103.10;112361;1246;22463;-52
2024/01/05 10:39:35;;;;;;;;;;;;;;;5.54;100.00;99105.17;113013;1249;22344;-52
2024/01/05 10:42:14;;;;;;;;;;;;;;;5.54;100.00;99108.64;113018;1247;22402;-47
2024/01/05 10:44:41;;;;;;;;;;;;;;;5.52;100.00;99111.24;112989;1239;22905;-53
2024/01/05 10:47:08;;;;;;;;;;;;;;;5.50;100.00;99116.42;112625;1236;22509;-49
2024/01/05 10:49:34;;;;;;;;;;;;;;;5.48;100.00;99118.15;112483;1236;22541;-53
2024/01/05 10:52:02;;;;;;;;;;;;;;;5.45;100.00;99128.86;111728;1240;24000;-53
2024/01/05 10:54:30;;;;;;;;;;;;;;;5.43;100.00;99125.23;110769;1249;22481;-54
2024/01/05 10:56:58;;;;;;;;;;;;;;;5.40;100.00;99135.95;110482;1246;25304;-47
2024/01/05 10:59:25;;;;;;;;;;;;;;;5.38;100.00;99137.48;110795;1233;26969;-49
2024/01/05 11:01:51;;;;;;;;;;;;;;;5.36;100.00;99138.18;110047;1237;22500;-46
2024/01/05 11:04:18;;;;;;;;;;;;;;;5.40;100.00;99141.48;111210;1239;22506;-46
2024/01/05 11:06:45;;;;;;;;;;;;;;;5.50;100.00;99137.52;111241;1239;22504;-53
2024/01/05 11:09:24;;;;;;;;;;;;;;;5.62;97.57;99143.77;111210;1249;22699;-54
2024/01/05 11:12:09;;;;;;;;;;;;;;;5.67;94.76;99147.05;110697;1249;27145;-46
2024/01/05 11:14:36;;;;;;;;;;;;;;;5.60;94.36;99151.73;110956;1249;26457;-53
2024/01/05 11:17:06;;;;;;;;;;;;;;;5.51;93.80;99160.02;110997;1246;24162;-47
2024/01/05 11:19:48;;;;;;;;;;;;;;;5.40;93.89;99170.02;110405;1249;22501;-50
2024/01/05 11:22:17;;;;;;;;;;;;;;;5.28;93.20;99166.69;111767;1249;22533;-52
2024/01/05 11:24:44;;;;;;;;;;;;;;;5.19;93.18;99170.29;112363;1236;23154;-53
2024/01/05 11:27:28;;;;;;;;;;;;;;;5.10;93.92;99176.98;111883;1249;23718;-53
2024/01/05 11:29:56;;;;;;;;;;;;;;;5.02;94.57;99169.52;110915;1249;22473;-46
2024/01/05 11:32:47;;;;;;;;;;;;;;;4.95;95.13;99173.47;113019;1237;23082;-47
2024/01/05 11:35:19;;;;;;;;;;;;;;;4.89;96.05;99174.83;113022;1240;23144;-47
2024/01/05 11:37:46;;;;;;;;;;;;;;;4.86;96.91;99177.55;112310;1249;25307;-48
2024/01/05 11:40:22;;;;;;;;;;;;;;;4.85;97.14;99188.45;112992;1238;22856;-48
2024/01/05 11:42:48;;;;;;;;;;;;;;;5.02;97.21;99194.92;112972;1249;22513;-54
2024/01/05 11:45:15;;;;;;;;;;;;;;;5.47;96.80;99184.38;112862;1247;22441;-54
2024/01/05 11:47:45;;;;;;;;;;;;;;;5.84;94.53;99189.14;112725;1240;22490;-47
2024/01/05 11:50:26;;;;;;;;;;;;;;;6.13;93.11;99197.50;111536;1249;22846;-47
2024/01/05 11:53:08;;;;;;;;;;;;;;;6.35;91.25;99196.11;112492;1249;22499;-46
2024/01/05 11:55:40;;;;;;;;;;;;;;;6.32;89.74;99212.06;113006;1242;22411;-47
2024/01/05 11:58:07;;;;;;;;;;;;;;;6.18;90.45;99212.58;113013;1249;22456;-46
2024/01/05 12:00:35;;;;;;;;;;;;;;;6.17;91.51;99205.83;112218;1249;22479;-48
2024/01/05 12:03:02;;;;;;;;;;;;;;;6.21;91.72;99206.00;112302;1237;24271;-52
2024/01/05 12:05:31;;;;;;;;;;;;;;;6.23;92.35;99203.40;111978;1249;22582;-47
2024/01/05 12:07:58;;;;;;;;;;;;;;;6.31;92.11;99207.55;110535;1241;22578;-46
2024/01/05 12:10:25;;;;;;;;;;;;;;;6.37;91.77;99214.48;111329;1249;22582;-48
2024/01/05 12:12:52;;;;;;;;;;;;;;;6.42;92.06;99228.84;112425;1249;22525;-46
2024/01/05 12:15:20;;;;;;;;;;;;;;;6.37;92.63;99243.92;112974;1249;22398;-51
2024/01/05 12:17:47;;;;;;;;;;;;;;;6.17;94.76;99247.37;112951;1249;23212;-46
2024/01/05 12:20:15;;;;;;;;;;;;;;;5.91;96.95;99248.70;112507;1249;22505;-51
2024/01/05 12:22:42;;;;;;;;;;;;;;;5.69;99.27;99251.56;112952;1239;22382;-46
2024/01/05 12:25:09;;;;;;;;;;;;;;;5.54;100.00;99253.08;112087;1249;22449;-46
2024/01/05 12:27:39;;;;;;;;;;;;;;;5.42;100.00;99256.14;110705;1248;24221;-46
2024/01/05 12:30:07;;;;;;;;;;;;;;;5.32;100.00;99263.88;112982;1236;22373;-46
2024/01/05 12:32:34;;;;;;;;;;;;;;;5.24;100.00;99265.39;112977;1249;22481;-46
2024/01/05 12:35:01;;;;;;;;;;;;;;;5.17;100.00;99266.05;112068;1246;23352;-46
2024/01/05 12:37:29;;;;;;;;;;;;;;;5.12;100.00;99269.48;112505;1241;22469;-46
2024/01/05 12:40:11;;;;;;;;;;;;;;;5.07;100.00;99277.58;110028;1249;23840;-46
2024/01/05 12:42:38;;;;;;;;;;;;;;;5.04;100.00;99289.13;112967;1249;22503;-47
2024/01/05 12:45:06;;;;;;;;;;;;;;;4.99;100.00;99294.46;112923;1249;23165;-50
2024/01/05 12:47:33;;;;;;;;;;;;;;;4.94;100.00;99297.72;112761;1249;23251;-47
2024/01/05 12:50:00;;;;;;;;;;;;;;;4.92;100.00;99302.70;111988;1249;24107;-53
2024/01/05 12:52:34;;;;;;;;;;;;;;;4.91;100.00;99306.50;111678;1249;25468;-47
2024/01/05 12:55:03;;;;;;;;;;;;;;;4.89;100.00;99312.55;110376;1249;22516;-47
2024/01/05 12:57:32;;;;;;;;;;;;;;;4.86;100.00;99321.85;112939;1249;22391;-47
2024/01/05 13:00:08;;;;;;;;;;;;;;;4.85;100.00;99332.55;112958;1237;22396;-53
2024/01/05 13:02:38;;;;;;;;;;;;;;;4.83;100.00;99332.55;112919;1249;22718;-53
2024/01/05 13:05:27;;;;;;;;;;;;;;;4.81;100.00;99335.98;112939;1237;22356;-53
2024/01/05 13:07:54;;;;;;;;;;;;;;;4.81;100.00;99334.24;112952;1249;22427;-53
2024/01/05 13:10:23;;;;;;;;;;;;;;;4.79;100.00;99348.57;112803;1249;22482;-48
2024/01/05 13:12:50;;;;;;;;;;;;;;;4.77;100.00;99351.16;111635;1249;22487;-47
2024/01/05 13:15:17;;;;;;;;;;;;;;;4.75;100.00;99353.55;110662;1249;22449;-52
2024/01/05 13:17:47;;;;;;;;;;;;;;;4.73;100.00;99355.60;111235;1249;25464;-45
2024/01/05 13:20:14;;;;;;;;;;;;;;;4.70;100.00;99363.88;110539;1248;22742;-47
2024/01/05 13:22:41;;;;;;;;;;;;;;;4.68;100.00;99372.14;109864;1239;25358;-46
2024/01/05 13:25:08;;;;;;;;;;;;;;;4.66;100.00;99375.92;112575;1237;22449;-47
2024/01/05 13:27:38;;;;;;;;;;;;;;;4.64;100.00;99382.30;112956;1240;22433;-47
2024/01/05 13:30:06;;;;;;;;;;;;;;;4.62;100.00;99383.66;112974;1249;22362;-47
2024/01/05 13:32:37;;;;;;;;;;;;;;;4.62;100.00;99387.29;113032;1249;22479;-47
2024/01/05 13:35:08;;;;;;;;;;;;;;;4.62;100.00;99385.56;111266;1249;24333;-48
2024/01/05 13:37:35;;;;;;;;;;;;;;;4.62;100.00;99392.30;111054;1249;24114;-53
2024/01/05 13:40:02;;;;;;;;;;;;;;;4.61;100.00;99396.44;110591;1249;25654;-53
2024/01/05 13:42:29;;;;;;;;;;;;;;;4.59;100.00;99399.36;112128;1249;22482;-47
2024/01/05 13:44:56;;;;;;;;;;;;;;;4.55;100.00;99405.70;110873;1249;22513;-47
2024/01/05 13:47:24;;;;;;;;;;;;;;;4.45;100.00;99409.74;112860;1248;22504;-52
2024/01/05 13:49:51;;;;;;;;;;;;;;;4.29;100.00;99401.81;112960;1249;22340;-46
2024/01/05 13:52:17;;;;;;;;;;;;;;;4.14;100.00;99408.02;112974;1249;22408;-52
2024/01/05 13:54:44;;;;;;;;;;;;;;;3.99;100.00;99408.53;112169;1239;22579;-46
2024/01/05 13:57:14;;;;;;;;;;;;;;;3.87;100.00;99406.66;110406;1249;22611;-52
2024/01/05 13:59:41;;;;;;;;;;;;;;;3.79;100.00;99413.96;112515;1248;22605;-51
2024/01/05 14:02:08;;;;;;;;;;;;;;;3.72;100.00;99419.39;112961;1249;23704;-45
2024/01/05 14:04:35;;;;;;;;;;;;;;;3.65;100.00;99421.38;111794;1249;22503;-46
2024/01/05 14:07:02;;;;;;;;;;;;;;;3.59;100.00;99431.28;112953;1249;22412;-52
2024/01/05 14:09:29;;;;;;;;;;;;;;;3.54;100.00;99441.91;111432;1245;22490;-46
2024/01/05 14:11:55;;;;;;;;;;;;;;;3.51;100.00;99453.40;111813;1249;24223;-47
2024/01/05 14:14:22;;;;;;;;;;;;;;;3.48;100.00;99453.90;111805;1249;22478;-45
2024/01/05 14:16:49;;;;;;;;;;;;;;;3.47;100.00;99461.96;112554;1249;22584;-46
2024/01/05 14:19:16;;;;;;;;;;;;;;;3.47;100.00;99469.73;112971;1249;22400;-51
2024/01/05 14:21:42;;;;;;;;;;;;;;;3.49;100.00;99475.46;110996;1237;23709;-48
2024/01/05 14:24:09;;;;;;;;;;;;;;;3.49;100.00;99488.39;110849;1242;23195;-48
2024/01/05 14:26:37;;;;;;;;;;;;;;;3.49;100.00;99488.39;110025;1238;25185;-47
2024/01/05 14:29:05;;;;;;;;;;;;;;;3.47;100.00;99497.48;109894;1249;22482;-52
2024/01/05 14:31:33;;;;;;;;;;;;;;;3.45;100.00;99501.27;110655;1249;25181;-48
2024/01/05 14:34:00;;;;;;;;;;;;;;;3.43;100.00;99507.43;111537;1245;22465;-53
2024/01/05 14:36:27;;;;;;;;;;;;;;;3.39;100.00;99509.27;111698;1249;22473;-53
2024/01/05 14:38:54;;;;;;;;;;;;;;;3.34;100.00;99514.17;112534;1237;22482;-47
